Time;durP1;ratioP1;P1;durP2;ratioP2;P2;SDS_P1;SDS_P2;PMS_P1;PMS_P2;Temp;Humidity;BMP_temperature;BMP_pressure;BME280_temperature;BME280_humidity;BME280_pressure;Samples;Min_cycle;Max_cycle;Signal;HPM_P1;HPM_P2
2024/01/16 00:00:08;;;;;;;8.80;1.67;;;-1.10;99.90;;;;;;4880967;29;20048;-46
2024/01/16 00:02:34;;;;;;;16.60;2.03;;;-1.20;99.90;;;;;;4878592;29;20488;-50
2024/01/16 00:05:00;;;;;;;9.90;1.55;;;-1.10;99.90;;;;;;4877644;29;20047;-48
2024/01/16 00:07:25;;;;;;;10.95;1.60;;;-1.10;99.90;;;;;;4879213;29;20124;-47
2024/01/16 00:09:53;;;;;;;11.13;1.70;;;-1.10;99.90;;;;;;4876711;29;20044;-47
2024/01/16 00:12:19;;;;;;;12.43;1.92;;;-1.10;99.90;;;;;;4878825;29;20101;-49
2024/01/16 00:14:45;;;;;;;11.68;1.80;;;-1.20;99.90;;;;;;4880596;29;20036;-47
2024/01/16 00:17:11;;;;;;;12.02;1.60;;;-1.20;99.90;;;;;;4876836;29;20053;-47
2024/01/16 00:19:36;;;;;;;14.45;1.92;;;-1.10;99.90;;;;;;4876371;29;20444;-46
2024/01/16 00:22:04;;;;;;;9.73;1.60;;;-0.90;99.90;;;;;;4877488;29;20045;-47
2024/01/16 00:24:30;;;;;;;12.70;1.85;;;-1.10;99.90;;;;;;4875421;29;20045;-47
2024/01/16 00:26:56;;;;;;;10.85;1.60;;;-1.10;99.90;;;;;;4873602;29;20064;-47
2024/01/16 00:29:21;;;;;;;9.82;1.40;;;-1.00;99.90;;;;;;4855777;29;20063;-51
2024/01/16 00:31:47;;;;;;;8.82;1.52;;;-1.10;99.90;;;;;;4857421;29;20129;-47
2024/01/16 00:34:13;;;;;;;13.85;1.63;;;-0.90;99.90;;;;;;4874303;29;20049;-47
2024/01/16 00:36:38;;;;;;;10.88;1.45;;;-1.00;99.90;;;;;;4875753;29;20045;-45
2024/01/16 00:39:04;;;;;;;9.75;1.13;;;-1.00;99.90;;;;;;4878768;29;20069;-46
2024/01/16 00:41:29;;;;;;;11.00;1.98;;;-0.90;99.90;;;;;;4877564;29;20041;-46
2024/01/16 00:43:55;;;;;;;10.57;1.73;;;-1.10;99.90;;;;;;4878502;29;20057;-46
2024/01/16 00:46:21;;;;;;;13.60;1.55;;;-0.90;99.90;;;;;;4876635;29;20480;-48
2024/01/16 00:48:48;;;;;;;7.82;1.50;;;-1.10;99.90;;;;;;4862995;29;20636;-48
2024/01/16 00:51:14;;;;;;;10.77;1.40;;;-0.90;99.90;;;;;;4877269;29;20073;-46
2024/01/16 00:53:43;;;;;;;11.93;1.90;;;-0.90;99.90;;;;;;4877054;29;20045;-47
2024/01/16 00:56:09;;;;;;;10.77;1.30;;;-1.00;99.90;;;;;;4875121;29;20612;-48
2024/01/16 00:58:35;;;;;;;10.20;1.83;;;-1.10;99.90;;;;;;4882058;29;20089;-46
2024/01/16 01:01:01;;;;;;;9.65;1.52;;;-1.10;99.90;;;;;;4880216;29;20041;-46
2024/01/16 01:03:26;;;;;;;10.32;1.52;;;-1.10;99.90;;;;;;4876780;29;20052;-48
2024/01/16 01:05:52;;;;;;;10.35;1.23;;;-1.10;99.90;;;;;;4878428;29;20079;-47
2024/01/16 01:08:18;;;;;;;7.35;1.30;;;-0.80;99.90;;;;;;4859491;29;20404;-47
2024/01/16 01:10:44;;;;;;;11.27;1.45;;;-1.00;99.90;;;;;;4872222;29;20045;-48
2024/01/16 01:13:10;;;;;;;8.32;1.33;;;-0.90;99.90;;;;;;4873064;29;20452;-49
2024/01/16 01:15:35;;;;;;;4.43;1.20;;;-1.00;99.90;;;;;;4872020;29;20040;-47
2024/01/16 01:18:01;;;;;;;6.88;1.10;;;-1.00;99.90;;;;;;4875290;29;20404;-48
2024/01/16 01:20:27;;;;;;;13.30;1.10;;;-0.80;99.90;;;;;;4859166;29;20045;-47
2024/01/16 01:22:52;;;;;;;8.88;1.20;;;-0.70;99.90;;;;;;4876567;29;20721;-46
2024/01/16 01:25:18;;;;;;;10.15;1.33;;;-0.70;99.90;;;;;;4872849;29;20053;-47
2024/01/16 01:27:44;;;;;;;12.07;1.13;;;-0.80;99.90;;;;;;4873071;29;20041;-47
2024/01/16 01:30:10;;;;;;;5.43;1.27;;;-0.90;99.90;;;;;;4874132;29;20041;-48
2024/01/16 01:32:36;;;;;;;10.35;1.35;;;-1.00;99.90;;;;;;4871560;29;20045;-46
2024/01/16 01:35:03;;;;;;;9.07;1.30;;;-0.90;99.90;;;;;;4855514;29;20041;-46
2024/01/16 01:37:28;;;;;;;9.88;1.50;;;-0.80;99.90;;;;;;4873292;29;20049;-48
2024/01/16 01:39:54;;;;;;;9.15;1.25;;;-0.80;99.90;;;;;;4873048;29;20048;-48
2024/01/16 01:42:19;;;;;;;9.50;1.27;;;-0.80;99.90;;;;;;4875739;29;20041;-48
2024/01/16 01:44:45;;;;;;;7.40;1.05;;;-0.80;99.90;;;;;;4872715;29;20042;-47
2024/01/16 01:47:10;;;;;;;6.13;1.20;;;-1.00;99.90;;;;;;4876379;29;20045;-46
2024/01/16 01:49:37;;;;;;;10.90;1.45;;;-1.10;99.90;;;;;;4872662;29;20037;-46
2024/01/16 01:52:04;;;;;;;5.40;1.17;;;-1.00;99.90;;;;;;4875975;29;20101;-47
2024/01/16 01:54:34;;;;;;;5.57;1.40;;;-1.10;99.90;;;;;;4874924;29;20077;-48
2024/01/16 01:56:59;;;;;;;13.75;1.67;;;-1.10;99.90;;;;;;4871795;29;20048;-47
2024/01/16 01:59:25;;;;;;;11.55;1.92;;;-1.20;99.90;;;;;;4870556;29;20050;-47
2024/01/16 02:01:55;;;;;;;9.07;1.52;;;-0.90;99.90;;;;;;4872032;29;20087;-47
2024/01/16 02:04:22;;;;;;;11.27;1.30;;;-1.20;99.90;;;;;;4875108;29;20048;-48
2024/01/16 02:06:48;;;;;;;9.70;1.58;;;-0.90;99.90;;;;;;4852919;29;20044;-49
2024/01/16 02:09:14;;;;;;;6.70;1.35;;;-0.90;99.90;;;;;;4870698;29;20049;-46
2024/01/16 02:11:41;;;;;;;12.73;1.50;;;-1.00;99.90;;;;;;4871030;29;20788;-46
2024/01/16 02:14:07;;;;;;;10.00;1.52;;;-1.20;99.90;;;;;;4871754;29;20104;-46
2024/01/16 02:16:38;;;;;;;12.63;1.45;;;-1.20;99.90;;;;;;4871602;29;20119;-47
2024/01/16 02:19:04;;;;;;;6.78;1.30;;;-1.10;99.90;;;;;;4869311;29;20057;-45
2024/01/16 02:21:36;;;;;;;9.85;1.50;;;-1.00;99.90;;;;;;4870313;29;20056;-46
2024/01/16 02:24:02;;;;;;;10.27;1.50;;;-0.90;99.90;;;;;;4870256;29;20412;-46
2024/01/16 02:26:30;;;;;;;9.60;1.30;;;-0.80;99.90;;;;;;4870295;29;20108;-46
2024/01/16 02:28:55;;;;;;;9.32;1.30;;;-0.80;99.90;;;;;;4869790;29;20504;-46
2024/01/16 02:31:21;;;;;;;7.43;1.48;;;-1.00;99.90;;;;;;4871886;29;20076;-45
2024/01/16 02:33:47;;;;;;;5.20;1.35;;;-1.00;99.90;;;;;;4869723;29;20080;-45
2024/01/16 02:36:13;;;;;;;6.97;1.35;;;-0.90;99.90;;;;;;4872376;29;20096;-45
2024/01/16 02:38:39;;;;;;;6.97;1.17;;;-1.10;99.90;;;;;;4870540;29;22149;-47
2024/01/16 02:41:07;;;;;;;9.68;1.10;;;-1.10;99.90;;;;;;4870254;29;20055;-47
2024/01/16 02:43:33;;;;;;;7.93;1.23;;;-1.10;99.90;;;;;;4873683;29;20104;-46
2024/01/16 02:45:58;;;;;;;12.43;1.60;;;-0.90;99.90;;;;;;4859443;29;20048;-45
2024/01/16 02:48:24;;;;;;;12.23;1.33;;;-0.90;99.90;;;;;;4869868;29;20064;-46
2024/01/16 02:50:50;;;;;;;10.57;1.40;;;-0.90;99.90;;;;;;4868706;29;20108;-46
2024/01/16 02:53:15;;;;;;;8.57;1.23;;;-0.90;99.90;;;;;;4871298;29;20045;-45
2024/01/16 02:55:41;;;;;;;9.48;1.20;;;-0.90;99.90;;;;;;4870824;29;20100;-46
2024/01/16 02:58:06;;;;;;;10.68;1.20;;;-1.00;99.90;;;;;;4872042;29;20169;-47
2024/01/16 03:00:32;;;;;;;8.65;1.65;;;-1.10;99.90;;;;;;4874844;29;20047;-46
2024/01/16 03:02:58;;;;;;;13.90;1.65;;;-0.90;99.90;;;;;;4851640;29;20407;-45
2024/01/16 03:05:24;;;;;;;6.97;1.27;;;-1.00;99.90;;;;;;4871815;29;20476;-46
2024/01/16 03:07:49;;;;;;;8.88;1.50;;;-1.20;99.90;;;;;;4871088;29;20044;-46
2024/01/16 03:10:15;;;;;;;17.10;1.92;;;-1.20;99.90;;;;;;4872273;29;20049;-49
2024/01/16 03:12:41;;;;;;;9.45;1.10;;;-1.00;99.90;;;;;;4865355;29;20093;-50
2024/01/16 03:15:07;;;;;;;12.27;1.70;;;-0.90;99.90;;;;;;4867444;29;20120;-49
2024/01/16 03:17:32;;;;;;;16.50;1.80;;;-0.90;99.90;;;;;;4870628;29;20041;-47
2024/01/16 03:19:58;;;;;;;7.72;1.17;;;-1.00;99.90;;;;;;4870587;29;20060;-46
2024/01/16 03:22:24;;;;;;;10.65;1.95;;;-1.00;99.90;;;;;;4869728;29;20067;-46
2024/01/16 03:24:50;;;;;;;11.73;1.50;;;-0.90;99.90;;;;;;4870876;29;20057;-49
2024/01/16 03:27:16;;;;;;;11.57;1.75;;;-1.00;99.90;;;;;;4868727;29;20365;-48
2024/01/16 03:29:41;;;;;;;6.38;1.58;;;-0.90;99.90;;;;;;4874070;29;20037;-46
2024/01/16 03:32:08;;;;;;;9.52;1.50;;;-0.90;99.90;;;;;;4873862;29;20048;-49
2024/01/16 03:34:33;;;;;;;10.50;1.58;;;-1.00;99.90;;;;;;4872544;29;20132;-47
2024/01/16 03:36:59;;;;;;;12.38;1.58;;;-0.90;99.90;;;;;;4857014;29;20482;-45
2024/01/16 03:39:25;;;;;;;9.70;1.40;;;-0.90;99.90;;;;;;4874682;29;20056;-46
2024/01/16 03:41:50;;;;;;;12.25;1.65;;;-0.80;99.90;;;;;;4872409;29;20049;-46
2024/01/16 03:44:16;;;;;;;6.47;1.30;;;-0.70;99.90;;;;;;4873828;29;20369;-47
2024/01/16 03:46:42;;;;;;;6.57;1.92;;;-0.80;99.90;;;;;;4873129;29;20036;-46
2024/01/16 03:49:07;;;;;;;10.60;1.40;;;-0.80;99.90;;;;;;4873216;29;20045;-46
2024/01/16 03:51:33;;;;;;;6.65;1.55;;;-0.80;99.90;;;;;;4857248;29;20065;-45
2024/01/16 03:53:58;;;;;;;10.88;1.77;;;-0.70;99.90;;;;;;4873750;29;20407;-45
2024/01/16 03:56:24;;;;;;;11.63;1.70;;;-1.00;99.90;;;;;;4873701;29;20033;-47
2024/01/16 03:58:50;;;;;;;8.00;1.50;;;-0.80;99.90;;;;;;4874293;29;20076;-46
2024/01/16 04:01:15;;;;;;;9.85;1.42;;;-1.00;99.90;;;;;;4872684;29;20045;-47
2024/01/16 04:03:41;;;;;;;9.75;1.27;;;-0.80;99.90;;;;;;4875336;29;20053;-46
2024/01/16 04:06:17;;;;;;;8.93;1.23;;;-1.00;99.90;;;;;;4872981;29;21722;-45
2024/01/16 04:08:42;;;;;;;13.93;1.55;;;-0.90;99.90;;;;;;4875822;29;20124;-47
2024/01/16 04:11:13;;;;;;;9.35;1.27;;;-0.70;99.90;;;;;;4872670;29;20154;-45
2024/01/16 04:13:39;;;;;;;8.88;1.40;;;-0.80;99.90;;;;;;4873745;29;20047;-47
2024/01/16 04:16:05;;;;;;;10.93;1.73;;;-0.80;99.90;;;;;;4875988;29;20045;-47
2024/01/16 04:18:37;;;;;;;10.07;1.15;;;-0.70;99.90;;;;;;4874886;29;20053;-48
2024/01/16 04:21:03;;;;;;;11.00;1.23;;;-0.80;99.90;;;;;;4873894;29;21440;-47
2024/01/16 04:23:28;;;;;;;7.28;1.50;;;-0.80;99.90;;;;;;4877805;29;20128;-47
2024/01/16 04:25:54;;;;;;;7.40;1.55;;;-0.90;99.90;;;;;;4874491;29;20560;-46
2024/01/16 04:28:20;;;;;;;7.70;1.55;;;-0.90;99.90;;;;;;4874646;29;20048;-49
2024/01/16 04:30:45;;;;;;;11.30;1.58;;;-0.80;99.90;;;;;;4874793;29;20127;-46
2024/01/16 04:33:11;;;;;;;13.32;1.60;;;-0.80;99.90;;;;;;4875213;29;20045;-47
2024/01/16 04:35:36;;;;;;;14.77;2.15;;;-0.80;99.90;;;;;;4861367;29;20453;-47
2024/01/16 04:38:03;;;;;;;10.60;1.83;;;-0.70;99.90;;;;;;4874218;29;20068;-46
2024/01/16 04:40:28;;;;;;;10.07;1.65;;;-0.70;99.90;;;;;;4869357;29;20404;-48
2024/01/16 04:42:54;;;;;;;7.45;1.38;;;-0.70;99.90;;;;;;4871845;29;20045;-46
2024/01/16 04:45:20;;;;;;;5.97;1.50;;;-0.70;99.90;;;;;;4873221;29;20041;-46
2024/01/16 04:47:45;;;;;;;8.93;1.52;;;-0.80;99.90;;;;;;4874138;29;20095;-46
2024/01/16 04:50:11;;;;;;;11.90;1.60;;;-0.70;99.90;;;;;;4876319;29;20052;-46
2024/01/16 04:52:37;;;;;;;5.30;1.63;;;-0.70;99.90;;;;;;4874992;29;20052;-46
2024/01/16 04:55:03;;;;;;;9.93;1.50;;;-0.80;99.90;;;;;;4874175;29;20045;-46
2024/01/16 04:57:29;;;;;;;9.60;1.67;;;-0.90;99.90;;;;;;4873154;29;20136;-46
2024/01/16 04:59:54;;;;;;;9.82;1.50;;;-1.00;99.90;;;;;;4875596;29;20155;-45
2024/01/16 05:02:20;;;;;;;9.65;1.70;;;-0.80;99.90;;;;;;4873148;29;20397;-46
2024/01/16 05:04:49;;;;;;;9.90;1.83;;;-0.80;99.90;;;;;;4873251;29;20052;-47
2024/01/16 05:07:15;;;;;;;9.55;2.38;;;-0.90;99.90;;;;;;4871243;29;20053;-47
2024/01/16 05:09:40;;;;;;;8.38;1.95;;;-0.80;99.90;;;;;;4875877;29;20489;-45
2024/01/16 05:12:06;;;;;;;7.60;2.03;;;-0.90;99.90;;;;;;4873244;29;20040;-47
2024/01/16 05:14:32;;;;;;;12.45;1.90;;;-0.70;99.90;;;;;;4874961;29;20044;-46
2024/01/16 05:16:57;;;;;;;13.27;1.90;;;-0.80;99.90;;;;;;4875185;29;20047;-46
2024/01/16 05:19:23;;;;;;;10.23;1.88;;;-0.80;99.90;;;;;;4871542;29;20449;-46
2024/01/16 05:21:48;;;;;;;7.55;1.73;;;-1.00;99.90;;;;;;4875679;29;20041;-48
2024/01/16 05:24:14;;;;;;;11.05;2.13;;;-0.90;99.90;;;;;;4875402;29;20055;-46
2024/01/16 05:26:40;;;;;;;11.18;1.90;;;-1.00;99.90;;;;;;4872571;29;20076;-46
2024/01/16 05:29:06;;;;;;;8.77;1.88;;;-0.90;99.90;;;;;;4872781;29;20350;-48
2024/01/16 05:31:32;;;;;;;13.00;1.95;;;-0.90;99.90;;;;;;4870679;29;20053;-45
2024/01/16 05:33:58;;;;;;;8.70;1.80;;;-0.90;99.90;;;;;;4870746;29;20464;-45
2024/01/16 05:36:24;;;;;;;12.48;1.83;;;-0.80;99.90;;;;;;4871086;29;20052;-46
2024/01/16 05:38:50;;;;;;;8.98;1.90;;;-1.10;99.90;;;;;;4870849;29;20056;-45
2024/01/16 05:41:16;;;;;;;7.80;1.80;;;-1.00;99.90;;;;;;4870780;29;20044;-45
2024/01/16 05:43:41;;;;;;;13.07;1.92;;;-0.80;99.90;;;;;;4871179;29;20572;-46
2024/01/16 05:46:07;;;;;;;8.95;1.63;;;-0.90;99.90;;;;;;4871599;29;20052;-46
2024/01/16 05:48:32;;;;;;;7.50;1.52;;;-0.80;99.90;;;;;;4870266;29;20040;-45
2024/01/16 05:50:58;;;;;;;7.93;1.42;;;-0.90;99.90;;;;;;4869193;29;20057;-46
2024/01/16 05:53:24;;;;;;;10.73;1.80;;;-1.00;99.90;;;;;;4871163;29;20055;-46
2024/01/16 05:55:49;;;;;;;6.05;1.90;;;-1.10;99.90;;;;;;4872166;29;20049;-46
2024/01/16 05:58:15;;;;;;;8.20;1.83;;;-1.10;99.90;;;;;;4868054;29;20049;-45
2024/01/16 06:00:40;;;;;;;11.23;3.28;;;-1.00;99.90;;;;;;4869455;29;20052;-46
2024/01/16 06:03:06;;;;;;;9.55;2.22;;;-0.90;99.90;;;;;;4867721;29;20044;-45
2024/01/16 06:05:32;;;;;;;10.35;2.28;;;-1.10;99.90;;;;;;4873256;29;20045;-45
2024/01/16 06:07:57;;;;;;;13.25;2.40;;;-1.00;99.90;;;;;;4853848;29;20571;-46
2024/01/16 06:10:23;;;;;;;6.30;2.22;;;-0.90;99.90;;;;;;4870485;29;20045;-46
2024/01/16 06:12:49;;;;;;;8.85;2.63;;;-1.00;99.90;;;;;;4870502;29;20144;-48
2024/01/16 06:15:14;;;;;;;11.38;2.33;;;-1.00;99.90;;;;;;4871656;29;20135;-46
2024/01/16 06:17:40;;;;;;;8.45;2.58;;;-1.00;99.90;;;;;;4872433;29;20136;-47
2024/01/16 06:20:06;;;;;;;8.25;2.33;;;-0.80;99.90;;;;;;4872384;29;20397;-45
2024/01/16 06:22:32;;;;;;;9.73;2.75;;;-0.80;99.90;;;;;;4870530;29;20033;-45
2024/01/16 06:24:57;;;;;;;7.75;2.55;;;-0.90;99.90;;;;;;4872931;29;20041;-45
2024/01/16 06:27:23;;;;;;;13.98;3.25;;;-0.80;99.90;;;;;;4869860;29;20037;-47
2024/01/16 06:29:50;;;;;;;8.60;2.92;;;-0.70;99.90;;;;;;4874471;29;20037;-48
2024/01/16 06:32:16;;;;;;;15.32;3.22;;;-0.70;99.90;;;;;;4872772;29;20055;-45
2024/01/16 06:34:42;;;;;;;13.55;3.10;;;-0.60;99.90;;;;;;4869044;29;20045;-45
2024/01/16 06:37:08;;;;;;;13.85;2.97;;;-0.60;99.90;;;;;;4856157;29;20052;-47
2024/01/16 06:39:34;;;;;;;7.20;2.97;;;-0.70;99.90;;;;;;4873107;29;20049;-46
2024/01/16 06:42:00;;;;;;;9.15;3.20;;;-0.70;99.90;;;;;;4873556;29;20049;-46
2024/01/16 06:44:26;;;;;;;7.43;2.88;;;-0.60;99.90;;;;;;4853362;29;20049;-45
2024/01/16 06:46:51;;;;;;;10.50;2.80;;;-0.60;99.90;;;;;;4873093;29;20037;-46
2024/01/16 06:49:17;;;;;;;6.70;2.70;;;-0.70;99.90;;;;;;4872651;29;20045;-46
2024/01/16 06:51:43;;;;;;;11.05;3.28;;;-0.60;99.90;;;;;;4872442;29;20427;-47
2024/01/16 06:54:08;;;;;;;14.95;2.85;;;-0.60;99.90;;;;;;4872996;29;20104;-47
2024/01/16 06:56:34;;;;;;;12.30;2.95;;;-0.80;99.90;;;;;;4873317;29;20490;-46
2024/01/16 06:58:59;;;;;;;8.85;3.10;;;-0.70;99.90;;;;;;4874100;29;20048;-46
2024/01/16 07:01:26;;;;;;;8.18;3.20;;;-0.80;99.90;;;;;;4872571;29;20077;-45
2024/01/16 07:03:52;;;;;;;9.82;3.13;;;-0.60;99.90;;;;;;4854739;29;20048;-46
2024/01/16 07:06:18;;;;;;;10.52;3.15;;;-0.80;99.90;;;;;;4869463;29;20049;-46
2024/01/16 07:08:43;;;;;;;9.82;3.22;;;-0.70;99.90;;;;;;4867249;29;20049;-47
2024/01/16 07:11:12;;;;;;;16.48;3.20;;;-0.80;99.90;;;;;;4870490;29;20045;-45
2024/01/16 07:13:38;;;;;;;6.85;3.42;;;-0.90;99.90;;;;;;4877737;29;20052;-46
2024/01/16 07:16:04;;;;;;;12.50;3.40;;;-0.60;99.90;;;;;;4875200;29;20522;-45
2024/01/16 07:18:30;;;;;;;6.53;3.22;;;-0.90;99.90;;;;;;4874093;29;20065;-45
2024/01/16 07:20:55;;;;;;;8.65;3.35;;;-0.80;99.90;;;;;;4875560;29;20085;-46
2024/01/16 07:23:21;;;;;;;10.23;3.60;;;-0.90;99.90;;;;;;4872968;29;20052;-45
2024/01/16 07:25:47;;;;;;;12.05;3.63;;;-0.70;99.90;;;;;;4873927;29;20085;-45
2024/01/16 07:28:12;;;;;;;10.25;3.35;;;-0.70;99.90;;;;;;4876429;29;20774;-49
2024/01/16 07:30:38;;;;;;;8.38;3.90;;;-0.70;99.90;;;;;;4876405;29;20041;-45
2024/01/16 07:33:04;;;;;;;9.23;3.90;;;-0.90;99.90;;;;;;4863649;29;20056;-46
2024/01/16 07:35:30;;;;;;;12.30;3.25;;;-0.70;99.90;;;;;;4877352;29;20045;-45
2024/01/16 07:37:55;;;;;;;12.55;4.03;;;-0.80;99.90;;;;;;4874857;29;20056;-45
2024/01/16 07:40:21;;;;;;;12.50;4.13;;;-0.80;99.90;;;;;;4874767;29;20092;-45
2024/01/16 07:42:46;;;;;;;8.18;3.55;;;-0.80;99.90;;;;;;4874854;29;20093;-47
2024/01/16 07:45:12;;;;;;;8.38;3.60;;;-0.60;99.90;;;;;;4879540;29;20069;-45
2024/01/16 07:47:38;;;;;;;9.27;3.85;;;-0.70;99.90;;;;;;4874867;29;20045;-45
2024/01/16 07:50:04;;;;;;;7.43;4.13;;;-0.60;99.90;;;;;;4873972;29;20049;-45
2024/01/16 07:52:30;;;;;;;14.75;3.90;;;-0.60;99.90;;;;;;4854398;29;20073;-46
2024/01/16 07:54:56;;;;;;;7.55;3.75;;;-0.80;99.90;;;;;;4874422;29;20037;-45
2024/01/16 07:57:21;;;;;;;10.75;3.67;;;-0.70;99.90;;;;;;4872960;29;20457;-49
2024/01/16 07:59:47;;;;;;;12.00;3.92;;;-0.60;99.90;;;;;;4876752;29;20369;-46
2024/01/16 08:02:12;;;;;;;10.88;3.78;;;-0.60;99.90;;;;;;4874978;29;20060;-46
2024/01/16 08:04:38;;;;;;;9.27;3.83;;;-0.50;99.90;;;;;;4874167;29;20044;-47
2024/01/16 08:07:04;;;;;;;14.15;4.07;;;-0.70;99.90;;;;;;4877285;29;20041;-46
2024/01/16 08:09:29;;;;;;;10.90;3.97;;;-0.60;99.90;;;;;;4875129;29;20560;-45
2024/01/16 08:11:55;;;;;;;10.40;4.20;;;-0.50;99.90;;;;;;4877184;29;20045;-45
2024/01/16 08:14:20;;;;;;;15.13;5.10;;;-0.30;99.90;;;;;;4869567;29;20080;-46
2024/01/16 08:16:46;;;;;;;12.82;5.18;;;-0.40;99.90;;;;;;4872924;29;20131;-46
2024/01/16 08:19:13;;;;;;;13.35;5.35;;;-0.30;99.90;;;;;;4874782;29;20504;-47
2024/01/16 08:21:39;;;;;;;14.10;5.20;;;-0.30;99.90;;;;;;4874700;29;20493;-46
2024/01/16 08:24:04;;;;;;;11.63;5.00;;;-0.40;99.90;;;;;;4874173;29;20045;-45
2024/01/16 08:26:30;;;;;;;12.07;5.53;;;-0.30;99.90;;;;;;4872206;29;20128;-46
2024/01/16 08:28:55;;;;;;;12.05;5.43;;;-0.10;99.90;;;;;;4876925;29;20049;-47
2024/01/16 08:31:21;;;;;;;16.05;6.68;;;-0.20;99.90;;;;;;4873323;29;20104;-45
2024/01/16 08:33:47;;;;;;;18.13;6.40;;;-0.20;99.90;;;;;;4877802;29;20049;-49
2024/01/16 08:36:14;;;;;;;14.05;6.10;;;-0.10;99.90;;;;;;4876550;29;20057;-46
2024/01/16 08:38:40;;;;;;;13.82;6.40;;;-0.20;99.90;;;;;;4878133;29;20080;-46
2024/01/16 08:41:06;;;;;;;16.77;7.75;;;-0.10;99.90;;;;;;4875409;29;20053;-46
2024/01/16 08:43:35;;;;;;;17.13;7.25;;;0.20;99.90;;;;;;4873788;29;20060;-46
2024/01/16 08:46:01;;;;;;;13.35;7.53;;;0.00;99.90;;;;;;4877209;29;20041;-45
2024/01/16 08:48:27;;;;;;;20.40;8.00;;;0.20;99.90;;;;;;4876885;29;20084;-45
2024/01/16 08:50:54;;;;;;;15.65;7.93;;;0.10;99.90;;;;;;4876725;29;20081;-49
2024/01/16 08:53:20;;;;;;;18.25;8.85;;;0.40;99.90;;;;;;4875568;29;20707;-46
2024/01/16 08:55:45;;;;;;;15.63;8.32;;;0.30;99.90;;;;;;4877059;29;20041;-47
2024/01/16 08:58:11;;;;;;;15.00;8.25;;;0.50;99.90;;;;;;4878837;29;20061;-46
2024/01/16 09:00:37;;;;;;;18.45;8.60;;;0.30;99.90;;;;;;4876270;29;20472;-47
2024/01/16 09:03:04;;;;;;;19.15;8.07;;;0.50;99.90;;;;;;4874820;29;20056;-46
2024/01/16 09:05:29;;;;;;;16.73;8.25;;;0.50;99.90;;;;;;4871884;29;20049;-45
2024/01/16 09:07:55;;;;;;;16.40;8.20;;;0.60;99.90;;;;;;4872795;29;20105;-46
2024/01/16 09:10:20;;;;;;;15.20;8.45;;;0.50;99.90;;;;;;4870460;29;20449;-45
2024/01/16 09:12:47;;;;;;;14.43;7.43;;;0.60;99.90;;;;;;4872504;29;20060;-47
2024/01/16 09:15:13;;;;;;;14.23;8.15;;;0.70;99.90;;;;;;4871874;29;20128;-46
2024/01/16 09:17:39;;;;;;;16.77;8.60;;;0.50;99.90;;;;;;4872579;29;20463;-45
2024/01/16 09:20:06;;;;;;;13.40;8.82;;;0.80;99.90;;;;;;4867675;29;20041;-46
2024/01/16 09:22:32;;;;;;;13.93;8.05;;;0.70;99.90;;;;;;4867058;29;20056;-46
2024/01/16 09:24:58;;;;;;;15.75;8.40;;;0.60;99.90;;;;;;4871809;29;20049;-46
2024/01/16 09:27:23;;;;;;;16.95;7.70;;;0.70;99.90;;;;;;4878025;29;20040;-46
2024/01/16 09:29:49;;;;;;;11.60;7.60;;;0.70;99.90;;;;;;4876572;29;20049;-45
2024/01/16 09:32:14;;;;;;;17.13;7.93;;;0.70;99.90;;;;;;4877490;29;20132;-46
2024/01/16 09:34:40;;;;;;;14.80;7.45;;;0.90;99.90;;;;;;4876123;29;20409;-50
2024/01/16 09:37:05;;;;;;;16.30;7.78;;;0.80;99.90;;;;;;4875076;29;20044;-47
2024/01/16 09:39:32;;;;;;;16.02;8.13;;;0.80;99.90;;;;;;4878458;29;20086;-46
2024/01/16 09:42:01;;;;;;;13.35;6.35;;;0.90;99.90;;;;;;4870543;29;20594;-48
2024/01/16 09:44:27;;;;;;;13.40;6.75;;;0.70;99.90;;;;;;4875980;29;20487;-47
2024/01/16 09:46:56;;;;;;;17.23;7.32;;;0.80;99.90;;;;;;4872812;29;20066;-48
2024/01/16 09:49:23;;;;;;;12.93;7.00;;;0.70;99.90;;;;;;4872260;29;20068;-45
2024/01/16 09:51:49;;;;;;;14.57;7.28;;;0.60;99.90;;;;;;4859846;29;20053;-54
2024/01/16 09:54:14;;;;;;;20.08;7.00;;;0.70;99.90;;;;;;4878177;29;20053;-46
2024/01/16 09:56:43;;;;;;;15.48;6.70;;;0.70;99.90;;;;;;4878245;29;20037;-45
2024/01/16 09:59:10;;;;;;;14.52;6.50;;;0.90;99.90;;;;;;4877479;29;20049;-45
2024/01/16 10:01:36;;;;;;;13.80;7.18;;;1.00;99.90;;;;;;4877167;29;20047;-45
2024/01/16 10:04:02;;;;;;;10.73;6.85;;;1.00;99.90;;;;;;4877172;29;20348;-45
2024/01/16 10:06:29;;;;;;;11.75;6.78;;;1.10;99.90;;;;;;4876811;29;20049;-45
2024/01/16 10:08:55;;;;;;;10.80;6.63;;;1.10;99.90;;;;;;4876596;29;20048;-46
2024/01/16 10:11:20;;;;;;;11.30;6.50;;;1.10;99.90;;;;;;4864337;29;20037;-46
2024/01/16 10:13:46;;;;;;;10.98;6.25;;;1.20;99.90;;;;;;4877067;29;20057;-45
2024/01/16 10:16:12;;;;;;;15.95;6.13;;;1.20;99.90;;;;;;4869951;29;20531;-45
2024/01/16 10:18:38;;;;;;;14.98;5.90;;;1.10;99.90;;;;;;4876079;29;20037;-46
2024/01/16 10:21:04;;;;;;;14.90;5.82;;;1.20;99.90;;;;;;4876093;29;20099;-46
2024/01/16 10:23:32;;;;;;;12.40;5.78;;;1.20;99.90;;;;;;4876441;29;20033;-46
2024/01/16 10:26:04;;;;;;;;;;;1.10;99.90;;;;;;4877990;29;20122;-45
2024/01/16 10:28:30;;;;;;;7.82;5.43;;;1.10;99.90;;;;;;4878587;29;19923;-46
2024/01/16 10:31:05;;;;;;;10.18;5.40;;;1.20;99.90;;;;;;4877304;29;20052;-45
2024/01/16 10:33:30;;;;;;;9.13;4.95;;;1.20;99.90;;;;;;4877891;29;20053;-46
2024/01/16 10:36:11;;;;;;;18.25;5.15;;;1.30;99.90;;;;;;4876195;29;20124;-46
2024/01/16 10:38:41;;;;;;;8.20;4.95;;;1.20;99.90;;;;;;4875796;29;20049;-45
2024/01/16 10:41:10;;;;;;;9.32;4.82;;;1.20;99.90;;;;;;4874552;29;20060;-49
2024/01/16 10:43:37;;;;;;;9.00;4.40;;;1.20;99.90;;;;;;4877188;29;20507;-46
2024/01/16 10:46:16;;;;;;;8.95;4.60;;;1.30;99.90;;;;;;4895118;29;20104;-46
2024/01/16 10:48:43;;;;;;;8.20;5.55;;;1.30;99.90;;;;;;4897524;29;20119;-46
2024/01/16 10:51:16;;;;;;;9.98;5.00;;;1.40;99.90;;;;;;4895377;29;20056;-45
2024/01/16 10:53:46;;;;;;;8.68;4.55;;;1.50;99.90;;;;;;4859798;29;20053;-46
2024/01/16 10:56:12;;;;;;;15.13;5.28;;;1.50;99.90;;;;;;4877159;29;20049;-47
2024/01/16 10:58:42;;;;;;;10.40;5.55;;;1.60;99.90;;;;;;4878193;29;20560;-47
2024/01/16 11:01:12;;;;;;;14.15;5.65;;;1.70;99.90;;;;;;4878680;29;20037;-47
2024/01/16 11:03:52;;;;;;;12.68;6.28;;;1.80;99.90;;;;;;4878344;29;20089;-45
2024/01/16 11:06:19;;;;;;;10.30;5.90;;;;;;;;;;4882507;29;20057;-47
2024/01/16 11:08:48;;;;;;;13.05;6.25;;;;;;;;;;4878159;29;20444;-47
2024/01/16 11:11:15;;;;;;;11.45;5.80;;;2.10;99.90;;;;;;4877519;29;20556;-47
2024/01/16 11:13:44;;;;;;;11.52;5.68;;;2.10;99.90;;;;;;4878138;29;20444;-46
2024/01/16 11:16:13;;;;;;;12.48;6.15;;;2.20;99.90;;;;;;4877545;29;20124;-46
2024/01/16 11:18:39;;;;;;;8.77;5.78;;;2.10;99.90;;;;;;4878715;29;20045;-49
2024/01/16 11:21:08;;;;;;;9.10;6.13;;;2.10;99.90;;;;;;4878163;29;20048;-48
2024/01/16 11:23:35;;;;;;;11.25;6.40;;;2.20;99.90;;;;;;4897121;29;20049;-46
2024/01/16 11:26:23;;;;;;;11.75;6.43;;;2.20;99.90;;;;;;4896782;29;20131;-47
2024/01/16 11:28:49;;;;;;;12.45;7.03;;;2.20;99.90;;;;;;4896581;29;20052;-46
2024/01/16 11:31:32;;;;;;;14.45;7.25;;;2.20;99.90;;;;;;4888943;29;20061;-47
2024/01/16 11:33:59;;;;;;;16.80;8.18;;;2.20;99.90;;;;;;4877767;29;20053;-46
2024/01/16 11:36:46;;;;;;;13.20;7.68;;;2.20;99.90;;;;;;4881211;29;20159;-47
2024/01/16 11:39:19;;;;;;;12.80;7.60;;;2.20;99.90;;;;;;4886301;29;20041;-46
2024/01/16 11:41:51;;;;;;;15.52;7.93;;;2.20;99.90;;;;;;4887315;29;20083;-45
2024/01/16 11:44:36;;;;;;;15.23;7.60;;;2.20;99.90;;;;;;4885281;29;20055;-45
2024/01/16 11:47:02;;;;;;;12.77;8.35;;;2.10;99.90;;;;;;4879751;29;20065;-46
2024/01/16 11:49:30;;;;;;;17.08;8.57;;;2.20;99.90;;;;;;4880260;29;20056;-46
2024/01/16 11:51:55;;;;;;;17.17;9.43;;;2.00;99.90;;;;;;4880068;29;20048;-45
2024/01/16 11:54:22;;;;;;;15.23;9.63;;;2.00;99.90;;;;;;4880299;29;20064;-46
2024/01/16 11:57:05;;;;;;;20.27;9.93;;;2.00;99.90;;;;;;4882324;29;20124;-48
2024/01/16 11:59:54;;;;;;;14.68;10.00;;;2.00;99.90;;;;;;4883798;29;20045;-47
2024/01/16 12:02:46;;;;;;;16.27;9.85;;;2.00;99.90;;;;;;4880052;29;20143;-45
2024/01/16 12:05:12;;;;;;;19.85;10.68;;;2.00;99.90;;;;;;4879545;29;20454;-47
2024/01/16 12:07:49;;;;;;;15.52;10.57;;;2.00;99.90;;;;;;4868655;29;20049;-46
2024/01/16 12:10:15;;;;;;;19.20;10.60;;;2.10;99.90;;;;;;4880278;29;20052;-46
2024/01/16 12:12:41;;;;;;;16.98;10.75;;;2.10;99.90;;;;;;4882399;29;20060;-46
2024/01/16 12:15:16;;;;;;;15.73;9.68;;;2.10;99.90;;;;;;4888540;29;20032;-47
2024/01/16 12:17:54;;;;;;;17.08;9.90;;;2.10;99.90;;;;;;4892348;29;20400;-47
2024/01/16 12:20:19;;;;;;;;;;;2.10;99.90;;;;;;4896741;29;20053;-47
2024/01/16 12:22:45;;;;;;;16.48;10.10;;;2.10;99.90;;;;;;4884692;29;19946;-46
2024/01/16 12:25:12;;;;;;;19.30;9.60;;;2.20;99.90;;;;;;4884980;29;20152;-46
2024/01/16 12:27:38;;;;;;;13.65;8.60;;;2.20;99.90;;;;;;4881303;29;20059;-47
2024/01/16 12:30:08;;;;;;;14.75;8.90;;;2.10;99.90;;;;;;4877031;29;20041;-46
2024/01/16 12:32:33;;;;;;;13.40;8.90;;;2.10;99.90;;;;;;4877915;29;20049;-48
2024/01/16 12:34:59;;;;;;;13.52;9.05;;;2.10;99.90;;;;;;4877567;29;20045;-45
2024/01/16 12:37:24;;;;;;;17.55;9.77;;;2.10;99.90;;;;;;4880275;29;20051;-49
2024/01/16 12:39:51;;;;;;;19.48;9.15;;;2.00;99.90;;;;;;4878160;29;20048;-46
2024/01/16 12:42:18;;;;;;;18.10;9.15;;;2.00;99.90;;;;;;4885357;29;20055;-47